Time;durP1;ratioP1;P1;durP2;ratioP2;P2;SDS_P1;SDS_P2;PMS_P1;PMS_P2;Temp;Humidity;BMP_temperature;BMP_pressure;BME280_temperature;BME280_humidity;BME280_pressure;Samples;Min_cycle;Max_cycle;Signal;HPM_P1;HPM_P2
2024/03/18 00:01:47;;;;;;;;;;;;;;;6.85;100.00;99685.50;4975346;28;19922;-92
2024/03/18 00:04:12;;;;;;;;;;;;;;;6.85;100.00;99677.59;4975029;28;19986;-81
2024/03/18 00:06:38;;;;;;;;;;;;;;;6.85;100.00;99677.59;4975308;28;19922;-82
2024/03/18 09:03:47;;;;;;;;;;;;;;;7.00;100.00;99570.88;4995461;28;20008;-89
2024/03/18 09:06:12;;;;;;;;;;;;;;;7.01;100.00;99561.22;5013191;28;20345;-91
2024/03/18 09:08:38;;;;;;;;;;;;;;;7.03;100.00;99559.41;5010872;28;19920;-87
2024/03/18 09:11:03;;;;;;;;;;;;;;;7.02;100.00;99557.66;5012958;28;19924;-89
2024/03/18 09:13:29;;;;;;;;;;;;;;;7.08;100.00;99566.25;5013184;28;19923;-87
2024/03/18 09:15:54;;;;;;;;;;;;;;;7.07;100.00;99558.41;5011602;28;19940;-87
2024/03/18 09:18:19;;;;;;;;;;;;;;;7.10;100.00;99563.56;5012751;28;20005;-86
2024/03/18 09:20:47;;;;;;;;;;;;;;;7.04;100.00;99572.53;5012739;28;20340;-86
2024/03/18 09:23:12;;;;;;;;;;;;;;;7.07;100.00;99571.56;4994887;28;19921;-83
2024/03/18 09:25:38;;;;;;;;;;;;;;;7.11;100.00;99572.31;4995137;28;20418;-86
2024/03/18 09:28:03;;;;;;;;;;;;;;;7.11;100.00;99574.97;5013241;28;20792;-88
2024/03/18 09:30:30;;;;;;;;;;;;;;;7.11;100.00;99578.44;5011570;28;20008;-90
2024/03/18 09:32:55;;;;;;;;;;;;;;;7.06;100.00;99575.97;5012255;28;19979;-90
2024/03/18 09:35:22;;;;;;;;;;;;;;;7.14;100.00;99580.13;5012389;28;19935;-87
2024/03/18 09:37:47;;;;;;;;;;;;;;;7.12;100.00;99574.06;5012651;28;19925;-88
2024/03/18 09:40:12;;;;;;;;;;;;;;;7.05;100.00;99576.88;5012558;28;19922;-89
2024/03/18 09:42:38;;;;;;;;;;;;;;;7.13;100.00;99566.06;5012328;28;19917;-88
2024/03/18 09:45:05;;;;;;;;;;;;;;;7.12;100.00;99563.53;5012463;28;19963;-86
2024/03/18 09:47:33;;;;;;;;;;;;;;;7.13;100.00;99562.59;5010510;28;20008;-91
2024/03/18 09:49:58;;;;;;;;;;;;;;;7.19;100.00;99570.31;5012230;28;19918;-92
2024/03/18 09:52:24;;;;;;;;;;;;;;;7.13;100.00;99570.50;5012194;28;19928;-86
2024/03/18 09:54:50;;;;;;;;;;;;;;;7.12;100.00;99569.66;5012419;28;19921;-89
2024/03/18 09:57:18;;;;;;;;;;;;;;;7.16;100.00;99576.53;5011780;28;19928;-84
2024/03/18 09:59:43;;;;;;;;;;;;;;;7.07;100.00;99577.69;5012037;28;19932;-83
2024/03/18 10:02:16;;;;;;;;;;;;;;;7.14;100.00;99573.09;5010970;28;20314;-88
2024/03/18 10:04:41;;;;;;;;;;;;;;;7.18;100.00;99573.84;5011181;28;19929;-83
2024/03/18 10:07:12;;;;;;;;;;;;;;;7.18;100.00;99574.72;5012092;28;20284;-87
2024/03/18 10:09:37;;;;;;;;;;;;;;;7.18;100.00;99580.00;5012951;28;19921;-85
2024/03/18 10:12:03;;;;;;;;;;;;;;;7.19;100.00;99578.22;5018791;28;19924;-85
2024/03/18 10:14:29;;;;;;;;;;;;;;;7.19;100.00;99581.69;5000787;28;19960;-86
2024/03/18 10:16:55;;;;;;;;;;;;;;;7.27;100.00;99589.34;5016927;28;19968;-84
2024/03/18 10:19:21;;;;;;;;;;;;;;;7.25;100.00;99599.09;5017653;28;19984;-91
2024/03/18 10:21:46;;;;;;;;;;;;;;;7.27;100.00;99592.00;5018016;28;19925;-91
2024/03/18 10:24:12;;;;;;;;;;;;;;;7.28;100.00;99596.38;5017841;28;20015;-85
2024/03/18 10:26:38;;;;;;;;;;;;;;;7.30;100.00;99591.91;5018056;28;19976;-85
2024/03/18 10:29:04;;;;;;;;;;;;;;;7.26;100.00;99596.41;5007213;28;19965;-84
2024/03/18 10:31:37;;;;;;;;;;;;;;;7.29;100.00;99603.34;4999296;28;19925;-83
2024/03/18 10:34:04;;;;;;;;;;;;;;;7.26;100.00;99598.19;5018043;28;20292;-83
2024/03/18 10:36:32;;;;;;;;;;;;;;;7.27;100.00;99599.91;4998772;28;19925;-86
2024/03/18 10:39:08;;;;;;;;;;;;;;;7.28;100.00;99596.38;5018226;28;19948;-85
2024/03/18 10:41:38;;;;;;;;;;;;;;;7.26;100.00;99600.84;5015721;28;19924;-90
2024/03/18 10:44:23;;;;;;;;;;;;;;;7.27;100.00;99610.44;5018220;28;19992;-85
2024/03/18 10:46:48;;;;;;;;;;;;;;;7.28;100.00;99607.75;5016610;28;19925;-88
2024/03/18 10:49:17;;;;;;;;;;;;;;;7.26;100.00;99609.59;4999426;28;19922;-87
2024/03/18 10:51:45;;;;;;;;;;;;;;;7.29;100.00;99608.63;5009281;28;20300;-84
2024/03/18 10:54:13;;;;;;;;;;;;;;;7.28;100.00;99606.91;5000703;28;19980;-87
2024/03/18 10:56:38;;;;;;;;;;;;;;;7.28;100.00;99601.63;4992710;28;19929;-89
2024/03/18 10:59:04;;;;;;;;;;;;;;;7.31;100.00;99604.19;5017692;28;19918;-82
2024/03/18 11:01:29;;;;;;;;;;;;;;;7.26;100.00;99603.47;5014761;28;19921;-86
2024/03/18 11:03:55;;;;;;;;;;;;;;;7.28;100.00;99613.03;5018111;28;19937;-91
2024/03/18 11:06:20;;;;;;;;;;;;;;;7.28;100.00;99613.03;5017747;28;20024;-88
2024/03/18 11:08:47;;;;;;;;;;;;;;;7.32;100.00;99603.25;5018294;28;19920;-88
2024/03/18 11:11:14;;;;;;;;;;;;;;;7.34;100.00;99606.72;4997469;28;19931;-88
2024/03/18 11:13:41;;;;;;;;;;;;;;;6.82;100.00;99603.94;5018200;28;19921;-82
2024/03/18 11:16:08;;;;;;;;;;;;;;;6.09;100.00;99601.66;4996806;28;19917;-82
2024/03/18 11:18:38;;;;;;;;;;;;;;;5.74;100.00;99598.16;4998493;28;19918;-87
2024/03/18 11:21:05;;;;;;;;;;;;;;;5.62;100.00;99597.59;4979346;28;20218;-83
2024/03/18 11:23:31;;;;;;;;;;;;;;;5.48;100.00;99604.09;4977712;28;19925;-87
2024/03/18 11:25:58;;;;;;;;;;;;;;;5.38;100.00;99611.34;4977704;28;19981;-86
2024/03/18 11:28:36;;;;;;;;;;;;;;;5.33;100.00;99615.81;4995769;28;19928;-90
2024/03/18 11:31:05;;;;;;;;;;;;;;;5.32;100.00;99627.25;4993792;28;20008;-88
2024/03/18 11:33:33;;;;;;;;;;;;;;;5.20;100.00;99616.16;4994731;28;19949;-81
2024/03/18 11:36:01;;;;;;;;;;;;;;;5.17;100.00;99621.47;4995342;28;19918;-86
2024/03/18 11:38:26;;;;;;;;;;;;;;;5.13;100.00;99618.94;4995335;28;19922;-83
2024/03/18 11:40:52;;;;;;;;;;;;;;;5.14;100.00;99616.28;4977495;28;20020;-82
2024/03/18 11:43:17;;;;;;;;;;;;;;;5.05;100.00;99619.97;4995356;28;20020;-83
2024/03/18 11:45:46;;;;;;;;;;;;;;;5.07;100.00;99609.44;4993875;28;19965;-87
2024/03/18 11:48:11;;;;;;;;;;;;;;;5.04;100.00;99614.75;4985114;28;19961;-89
2024/03/18 11:50:38;;;;;;;;;;;;;;;4.95;100.00;99609.75;4976818;28;19968;-88
2024/03/18 11:53:04;;;;;;;;;;;;;;;4.91;100.00;99612.44;4994913;28;19972;-87
2024/03/18 11:55:37;;;;;;;;;;;;;;;4.91;100.00;99603.66;4975625;28;20350;-83
2024/03/18 11:58:07;;;;;;;;;;;;;;;4.85;100.00;99604.69;4992844;28;20012;-85
2024/03/18 12:00:33;;;;;;;;;;;;;;;4.84;100.00;99602.94;4968101;28;19930;-87
2024/03/18 12:02:59;;;;;;;;;;;;;;;4.78;100.00;99597.81;4985957;28;19922;-88
2024/03/18 12:05:25;;;;;;;;;;;;;;;4.73;100.00;99597.06;4994717;28;19925;-87
2024/03/18 12:07:51;;;;;;;;;;;;;;;4.75;100.00;99597.88;4994857;28;20365;-85
2024/03/18 12:10:18;;;;;;;;;;;;;;;4.68;100.00;99606.81;4969247;28;19972;-85
2024/03/18 12:12:44;;;;;;;;;;;;;;;4.69;100.00;99605.91;4976130;28;20044;-84
2024/03/18 12:15:09;;;;;;;;;;;;;;;4.70;100.00;99591.88;4985698;28;20001;-86
2024/03/18 12:17:35;;;;;;;;;;;;;;;4.68;100.00;99597.16;4973745;28;19922;-84
2024/03/18 12:20:00;;;;;;;;;;;;;;;4.65;100.00;99601.63;4976078;28;19922;-84
2024/03/18 12:22:26;;;;;;;;;;;;;;;4.63;100.00;99598.19;4968846;28;20510;-87
2024/03/18 12:30:31;;;;;;;;;;;;;;;4.62;100.00;99580.69;4992703;28;19929;-82
2024/03/18 12:32:57;;;;;;;;;;;;;;;4.55;100.00;99578.19;4993448;28;19926;-86
2024/03/18 12:35:22;;;;;;;;;;;;;;;4.47;100.00;99587.16;4974612;28;19922;-85
2024/03/18 12:37:49;;;;;;;;;;;;;;;4.49;100.00;99590.59;4976393;28;19961;-90
2024/03/18 12:40:16;;;;;;;;;;;;;;;4.46;100.00;99588.03;4976049;28;20016;-88
2024/03/18 12:42:42;;;;;;;;;;;;;;;4.47;100.00;99590.63;4993550;28;20383;-86
2024/03/18 12:45:09;;;;;;;;;;;;;;;4.55;100.00;99593.94;4994160;28;19976;-90
2024/03/18 12:47:35;;;;;;;;;;;;;;;4.47;100.00;99589.78;4974189;28;19961;-84
2024/03/18 12:50:00;;;;;;;;;;;;;;;4.48;100.00;99576.63;4973428;28;19961;-92
2024/03/18 12:52:28;;;;;;;;;;;;;;;4.46;100.00;99581.00;4996173;28;19921;-93
2024/03/18 12:54:54;;;;;;;;;;;;;;;4.51;100.00;99592.28;4991087;28;20396;-92
2024/03/18 12:57:19;;;;;;;;;;;;;;;4.47;100.00;99581.91;4974089;28;19926;-91
2024/03/18 12:59:49;;;;;;;;;;;;;;;4.50;100.00;99582.69;4997413;28;20423;-93
2024/03/18 13:02:15;;;;;;;;;;;;;;;4.43;100.00;99569.72;4994128;28;19921;-90
2024/03/18 13:04:40;;;;;;;;;;;;;;;4.43;100.00;99581.09;4993467;28;19927;-90
2024/03/18 13:07:05;;;;;;;;;;;;;;;4.50;100.00;99585.31;4977164;28;19922;-95
2024/03/18 13:09:31;;;;;;;;;;;;;;;4.47;100.00;99582.75;4994215;28;19918;-94
2024/03/18 13:11:57;;;;;;;;;;;;;;;4.49;100.00;99585.34;4973168;28;19930;-93
2024/03/18 13:14:23;;;;;;;;;;;;;;;4.40;100.00;99578.50;4994050;28;20284;-93
2024/03/18 13:16:48;;;;;;;;;;;;;;;4.39;100.00;99579.44;4974157;28;19961;-92
2024/03/18 13:19:14;;;;;;;;;;;;;;;4.37;100.00;99581.19;4993764;28;19961;-90
2024/03/18 13:21:39;;;;;;;;;;;;;;;4.43;100.00;99577.59;4992483;28;19925;-89
2024/03/18 13:24:06;;;;;;;;;;;;;;;4.40;100.00;99575.91;4992575;28;19929;-85
2024/03/18 13:26:31;;;;;;;;;;;;;;;4.47;100.00;99576.66;4992577;28;20016;-84
2024/03/18 13:28:56;;;;;;;;;;;;;;;4.45;100.00;99574.06;4992408;28;20038;-87
2024/03/18 13:31:22;;;;;;;;;;;;;;;4.50;100.00;99569.56;4991562;28;19921;-84
2024/03/18 13:33:47;;;;;;;;;;;;;;;4.54;100.00;99570.38;4992937;28;19921;-87
2024/03/18 13:36:14;;;;;;;;;;;;;;;4.43;100.00;99557.47;4992871;28;19922;-84
2024/03/18 13:38:39;;;;;;;;;;;;;;;4.52;100.00;99564.28;4993123;28;19933;-92
2024/03/18 13:41:07;;;;;;;;;;;;;;;4.40;100.00;99560.16;4992052;28;19922;-88
2024/03/18 13:43:32;;;;;;;;;;;;;;;4.34;100.00;99550.66;4974898;28;19918;-83
2024/03/18 13:45:58;;;;;;;;;;;;;;;4.38;100.00;99547.97;4990183;28;19925;-91
2024/03/18 13:48:23;;;;;;;;;;;;;;;4.39;100.00;99542.72;4992640;28;19921;-90
2024/03/18 13:50:49;;;;;;;;;;;;;;;4.38;100.00;99545.34;4992520;28;19976;-87
2024/03/18 13:53:15;;;;;;;;;;;;;;;4.40;100.00;99551.44;4974799;28;20008;-86
2024/03/18 13:55:40;;;;;;;;;;;;;;;4.40;100.00;99546.19;4991937;28;19930;-90
2024/03/18 13:58:05;;;;;;;;;;;;;;;4.32;100.00;99554.22;4974445;28;19972;-87
2024/03/18 14:00:30;;;;;;;;;;;;;;;4.32;100.00;99551.59;4991278;28;19932;-86
2024/03/18 14:02:56;;;;;;;;;;;;;;;4.24;100.00;99549.13;4992608;28;19936;-88
2024/03/18 14:05:21;;;;;;;;;;;;;;;4.33;100.00;99550.69;4974859;28;20004;-85
2024/03/18 14:07:49;;;;;;;;;;;;;;;4.34;100.00;99553.28;4992931;28;19969;-89
2024/03/18 14:10:17;;;;;;;;;;;;;;;4.39;100.00;99547.06;4975493;28;19926;-86
2024/03/18 14:12:42;;;;;;;;;;;;;;;4.31;100.00;99548.09;4992491;28;19962;-92
2024/03/18 14:15:11;;;;;;;;;;;;;;;4.25;100.00;99548.22;4984061;28;19914;-85
2024/03/18 14:17:36;;;;;;;;;;;;;;;9.38;100.00;99538.50;4991737;28;20337;-90
2024/03/18 14:20:06;;;;;;;;;;;;;;;6.91;100.00;99540.44;4993090;28;19928;-89
2024/03/18 14:22:31;;;;;;;;;;;;;;;5.53;100.00;99539.13;4968027;28;19922;-88
2024/03/18 14:25:00;;;;;;;;;;;;;;;5.20;100.00;99547.84;4991951;28;20357;-91
2024/03/18 14:27:25;;;;;;;;;;;;;;;5.04;100.00;99533.34;4973028;28;19922;-88
2024/03/18 14:29:50;;;;;;;;;;;;;;;4.87;100.00;99536.38;4992389;28;20046;-89
2024/03/18 14:32:16;;;;;;;;;;;;;;;4.79;100.00;99539.19;4991513;28;19971;-91
2024/03/18 14:34:41;;;;;;;;;;;;;;;4.88;100.00;99538.09;4973290;28;19926;-86
2024/03/18 14:37:09;;;;;;;;;;;;;;;4.83;100.00;99543.44;4974134;28;20368;-86
2024/03/18 14:39:34;;;;;;;;;;;;;;;4.74;100.00;99548.94;4992066;28;20380;-85
2024/03/18 14:41:59;;;;;;;;;;;;;;;4.70;100.00;99542.03;4992021;28;19922;-89
2024/03/18 14:44:28;;;;;;;;;;;;;;;4.56;100.00;99544.94;4974476;28;19941;-92
2024/03/18 14:46:54;;;;;;;;;;;;;;;4.55;100.00;99538.84;4973271;28;20384;-87
2024/03/18 14:49:19;;;;;;;;;;;;;;;4.56;100.00;99544.94;4991631;28;19925;-89
2024/03/18 14:51:44;;;;;;;;;;;;;;;4.64;100.00;99542.16;4992198;28;20296;-89
2024/03/18 14:54:12;;;;;;;;;;;;;;;4.67;100.00;99539.47;4974402;28;19926;-90
2024/03/18 14:56:37;;;;;;;;;;;;;;;4.61;100.00;99531.72;4975764;28;19918;-89
2024/03/18 14:59:03;;;;;;;;;;;;;;;4.48;100.00;99541.63;4969382;28;19918;-87
2024/03/18 15:01:31;;;;;;;;;;;;;;;4.43;100.00;99535.63;4995383;28;20266;-88
2024/03/18 15:03:59;;;;;;;;;;;;;;;4.49;100.00;99533.72;4977670;28;19929;-85
2024/03/18 15:06:25;;;;;;;;;;;;;;;4.43;100.00;99543.50;4994951;28;19917;-87
2024/03/18 15:08:50;;;;;;;;;;;;;;;4.46;100.00;99539.03;4995507;28;20005;-88
2024/03/18 15:11:15;;;;;;;;;;;;;;;4.41;100.00;99527.78;4978121;28;19922;-88
2024/03/18 15:13:44;;;;;;;;;;;;;;;4.41;100.00;99538.28;4995242;28;19925;-86
2024/03/18 15:16:10;;;;;;;;;;;;;;;4.48;100.00;99534.63;4994287;28;19918;-91
2024/03/18 15:18:36;;;;;;;;;;;;;;;4.37;100.00;99533.97;4977847;28;19924;-90
2024/03/18 15:21:02;;;;;;;;;;;;;;;4.38;100.00;99530.47;4976214;28;20375;-86
2024/03/18 15:23:48;;;;;;;;;;;;;;;4.48;100.00;99526.78;4977330;28;19960;-87
2024/03/18 15:29:04;;;;;;;;;;;;;;;4.48;100.00;99529.41;4979765;28;19964;-89
2024/03/18 15:31:33;;;;;;;;;;;;;;;4.47;100.00;99532.91;4993502;28;19926;-88
2024/03/18 15:33:58;;;;;;;;;;;;;;;4.55;100.00;99538.84;4994952;28;20044;-88
2024/03/18 15:36:24;;;;;;;;;;;;;;;4.48;100.00;99532.03;4994955;28;19969;-88
2024/03/18 15:38:49;;;;;;;;;;;;;;;4.47;100.00;99551.28;4995254;28;20581;-86
2024/03/18 15:41:14;;;;;;;;;;;;;;;4.43;100.00;99540.88;4994843;28;19925;-87
2024/03/18 15:43:43;;;;;;;;;;;;;;;4.49;100.00;99543.38;4995137;28;20288;-87
2024/03/18 15:46:08;;;;;;;;;;;;;;;4.42;100.00;99536.50;4992901;28;20377;-87
2024/03/18 15:48:33;;;;;;;;;;;;;;;4.38;100.00;99546.22;4994749;28;19929;-86
2024/03/18 15:50:59;;;;;;;;;;;;;;;4.37;100.00;99547.09;4994597;28;19925;-85
2024/03/18 15:53:24;;;;;;;;;;;;;;;4.30;100.00;99549.00;4976763;28;19921;-87
2024/03/18 15:55:49;;;;;;;;;;;;;;;4.27;100.00;99556.06;4973200;28;19929;-86
2024/03/18 15:58:15;;;;;;;;;;;;;;;4.28;100.00;99555.19;4994650;28;20445;-90
2024/03/18 16:00:40;;;;;;;;;;;;;;;4.32;100.00;99554.22;4975509;28;20721;-85
2024/03/18 16:03:08;;;;;;;;;;;;;;;4.32;100.00;99562.06;4977142;28;19929;-89
2024/03/18 16:05:36;;;;;;;;;;;;;;;4.15;100.00;99563.31;4975910;28;19925;-88
2024/03/18 16:08:04;;;;;;;;;;;;;;;4.47;100.00;99585.38;4994408;28;19922;-90
2024/03/18 16:10:31;;;;;;;;;;;;;;;4.50;100.00;99592.31;4993709;28;19918;-86
2024/03/18 16:13:04;;;;;;;;;;;;;;;4.46;100.00;99586.25;4994501;28;19917;-90
2024/03/18 16:15:29;;;;;;;;;;;;;;;4.43;100.00;99591.56;4974659;28;20366;-86
2024/03/18 16:17:55;;;;;;;;;;;;;;;4.35;100.00;99586.47;4976505;28;20343;-90
2024/03/18 16:20:21;;;;;;;;;;;;;;;4.25;100.00;99590.19;4993901;28;20020;-91
2024/03/18 16:22:46;;;;;;;;;;;;;;;4.24;100.00;99587.59;4992593;28;19926;-81
2024/03/18 16:25:17;;;;;;;;;;;;;;;4.10;100.00;99588.75;4994383;28;19921;-93
2024/03/18 16:27:42;;;;;;;;;;;;;;;4.17;100.00;99582.47;4993442;28;20270;-87
2024/03/18 16:30:08;;;;;;;;;;;;;;;4.17;100.00;99579.00;4993155;28;19928;-81
2024/03/18 16:32:34;;;;;;;;;;;;;;;4.25;100.00;99584.09;4991899;28;19967;-90
2024/03/18 16:35:01;;;;;;;;;;;;;;;4.16;100.00;99587.75;4994232;28;19918;-90
2024/03/18 16:37:26;;;;;;;;;;;;;;;4.13;100.00;99580.84;4973121;28;19925;-91
2024/03/18 16:39:51;;;;;;;;;;;;;;;4.11;100.00;99576.50;4996785;28;20793;-93
2024/03/18 16:42:17;;;;;;;;;;;;;;;4.18;100.00;99584.22;4993291;28;19922;-93
2024/03/18 16:44:43;;;;;;;;;;;;;;;4.10;100.00;99578.28;4976678;28;19922;-84
2024/03/18 16:47:09;;;;;;;;;;;;;;;4.08;100.00;99582.66;4992640;28;19917;-88
2024/03/18 16:49:34;;;;;;;;;;;;;;;4.00;100.00;99581.94;4993679;28;20430;-87
2024/03/18 16:51:59;;;;;;;;;;;;;;;4.04;100.00;99586.25;4993760;28;19918;-88
2024/03/18 16:54:25;;;;;;;;;;;;;;;4.02;100.00;99582.81;4993675;28;20012;-91
2024/03/18 16:56:50;;;;;;;;;;;;;;;3.96;100.00;99585.53;4968509;28;20420;-89
2024/03/18 16:59:15;;;;;;;;;;;;;;;4.02;100.00;99588.03;4993934;28;20341;-84
2024/03/18 17:01:41;;;;;;;;;;;;;;;3.97;100.00;99580.25;4992213;28;20058;-90
2024/03/18 17:04:06;;;;;;;;;;;;;;;4.04;100.00;99586.25;4993047;28;19984;-88
2024/03/18 17:06:31;;;;;;;;;;;;;;;3.95;100.00;99589.03;4967129;28;19924;-88
2024/03/18 17:08:57;;;;;;;;;;;;;;;3.94;100.00;99595.16;4993428;28;20280;-85
2024/03/18 17:11:22;;;;;;;;;;;;;;;3.94;100.00;99593.44;4993400;28;19972;-90
2024/03/18 17:13:48;;;;;;;;;;;;;;;3.96;100.00;99601.28;4993319;28;19925;-91
2024/03/18 17:16:13;;;;;;;;;;;;;;;4.04;100.00;99601.97;4992728;28;20265;-92
2024/03/18 17:18:38;;;;;;;;;;;;;;;4.00;100.00;99603.81;4975042;28;19924;-91
2024/03/18 17:21:27;;;;;;;;;;;;;;;4.08;100.00;99601.00;4976691;28;19914;-90
2024/03/18 17:23:52;;;;;;;;;;;;;;;4.16;100.00;99608.75;4987136;28;20016;-91
2024/03/18 17:26:18;;;;;;;;;;;;;;;4.28;100.00;99607.66;4975113;28;20025;-87
2024/03/18 17:28:44;;;;;;;;;;;;;;;4.57;100.00;99608.81;4992995;28;20373;-88
2024/03/18 17:31:27;;;;;;;;;;;;;;;4.85;100.00;99615.19;4992640;28;19972;-90
2024/03/18 17:33:53;;;;;;;;;;;;;;;5.02;100.00;99627.91;4993095;28;19921;-88
2024/03/18 17:36:20;;;;;;;;;;;;;;;5.21;100.00;99631.00;4993943;28;19925;-89
2024/03/18 17:38:50;;;;;;;;;;;;;;;5.34;100.00;99633.34;4973406;28;20009;-90
2024/03/18 17:41:16;;;;;;;;;;;;;;;5.40;100.00;99635.81;4974074;28;19924;-91
2024/03/18 17:44:31;;;;;;;;;;;;;;;5.49;100.00;99653.13;4992491;28;19917;-89
2024/03/18 17:46:57;;;;;;;;;;;;;;;5.56;100.00;99667.84;4961022;28;19922;-89
2024/03/18 17:49:24;;;;;;;;;;;;;;;5.61;100.00;99661.56;4974904;28;20348;-89
2024/03/18 17:51:49;;;;;;;;;;;;;;;5.61;100.00;99664.19;4992757;28;19960;-90
2024/03/18 17:54:15;;;;;;;;;;;;;;;5.70;100.00;99668.38;4992758;28;19969;-90
2024/03/18 17:56:44;;;;;;;;;;;;;;;5.73;100.00;99668.31;4974751;28;19921;-87
2024/03/18 17:59:13;;;;;;;;;;;;;;;5.79;100.00;99675.16;4993822;28;19969;-89
2024/03/18 18:02:01;;;;;;;;;;;;;;;5.74;100.00;99680.53;4973968;28;19922;-88
2024/03/18 18:04:36;;;;;;;;;;;;;;;5.83;100.00;99684.72;4951739;28;19921;-89
2024/03/18 18:07:02;;;;;;;;;;;;;;;5.83;100.00;99671.56;4991934;28;20435;-88
2024/03/18 18:09:27;;;;;;;;;;;;;;;5.87;100.00;99670.59;4992713;28;19918;-89
2024/03/18 18:11:52;;;;;;;;;;;;;;;5.89;100.00;99667.88;4974964;28;19926;-88
2024/03/18 18:17:04;;;;;;;;;;;;;;;5.96;100.00;99675.63;4991489;28;19929;-89
2024/03/18 18:19:36;;;;;;;;;;;;;;;5.98;100.00;99676.47;4973465;28;19914;-87
2024/03/18 18:22:25;;;;;;;;;;;;;;;;;;;;;
2024/03/18 18:24:53;;;;;;;;;;;;;;;6.04;100.00;99683.31;4991630;28;20389;-87
2024/03/18 18:27:19;;;;;;;;;;;;;;;6.09;100.00;99680.56;4973043;28;19922;-88
2024/03/18 18:29:45;;;;;;;;;;;;;;;6.10;100.00;99680.53;4992276;28;20432;-88
2024/03/18 18:32:10;;;;;;;;;;;;;;;6.16;100.00;99682.16;4993989;28;19925;-87
2024/03/18 18:34:38;;;;;;;;;;;;;;;6.20;100.00;99696.94;4996235;28;20328;-89
2024/03/18 18:37:06;;;;;;;;;;;;;;;6.21;100.00;99696.03;4996119;28;19976;-88
2024/03/18 18:39:34;;;;;;;;;;;;;;;6.23;100.00;99694.22;4996172;28;20540;-92
2024/03/18 18:41:59;;;;;;;;;;;;;;;6.24;100.00;99701.22;4995066;28;19972;-88
2024/03/18 18:44:25;;;;;;;;;;;;;;;6.27;100.00;99706.41;4996236;28;20350;-90
2024/03/18 18:46:54;;;;;;;;;;;;;;;6.29;100.00;99709.00;4994224;28;19918;-89
2024/03/18 18:49:19;;;;;;;;;;;;;;;6.28;100.00;99710.75;4978333;28;19922;-90
2024/03/18 18:51:45;;;;;;;;;;;;;;;6.34;100.00;99707.97;4995890;28;20427;-89
2024/03/18 18:54:11;;;;;;;;;;;;;;;6.36;100.00;99710.56;4978469;28;20293;-89
2024/03/18 18:56:36;;;;;;;;;;;;;;;6.37;100.00;99712.28;4995998;28;19956;-89
2024/03/18 18:59:01;;;;;;;;;;;;;;;6.36;100.00;99721.09;4995875;28;19997;-89
2024/03/18 19:01:27;;;;;;;;;;;;;;;6.35;100.00;99721.97;4994870;28;20384;-90
2024/03/18 19:03:52;;;;;;;;;;;;;;;6.38;100.00;99716.63;4995800;28;19926;-88
2024/03/18 19:06:20;;;;;;;;;;;;;;;6.39;100.00;99730.69;4995715;28;19964;-88
2024/03/18 19:08:46;;;;;;;;;;;;;;;6.39;100.00;99735.94;4977746;28;20294;-90
2024/03/18 19:11:33;;;;;;;;;;;;;;;6.38;100.00;99728.94;4977829;28;19924;-90
2024/03/18 19:13:58;;;;;;;;;;;;;;;6.42;100.00;99741.13;4995711;28;19917;-88
2024/03/18 19:16:24;;;;;;;;;;;;;;;6.43;100.00;99740.19;4994505;28;19918;-91
2024/03/18 19:18:49;;;;;;;;;;;;;;;6.40;100.00;99737.66;4995440;28;19918;-91
2024/03/18 19:21:14;;;;;;;;;;;;;;;6.45;100.00;99736.63;4995439;28;19953;-87
2024/03/18 19:23:40;;;;;;;;;;;;;;;6.45;100.00;99741.91;4995428;28;19921;-89
2024/03/18 19:26:05;;;;;;;;;;;;;;;6.49;100.00;99745.31;4995357;28;19922;-84
2024/03/18 19:28:31;;;;;;;;;;;;;;;6.48;100.00;99751.50;4995256;28;19918;-87
2024/03/18 19:30:57;;;;;;;;;;;;;;;6.52;100.00;99755.75;4994121;28;20377;-85
2024/03/18 19:33:23;;;;;;;;;;;;;;;6.57;100.00;99756.50;4995310;28;19924;-87
2024/03/18 19:35:48;;;;;;;;;;;;;;;6.53;100.00;99754.84;4977419;28;19922;-87
2024/03/18 19:38:13;;;;;;;;;;;;;;;6.50;100.00;99747.03;4975715;28;19974;-89
2024/03/18 19:40:40;;;;;;;;;;;;;;;6.53;100.00;99754.84;4972340;28;19932;-88
2024/03/18 19:43:08;;;;;;;;;;;;;;;6.52;100.00;99753.13;4974864;28;19918;-87
2024/03/18 19:45:39;;;;;;;;;;;;;;;6.50;100.00;99745.25;4994002;28;19957;-88
2024/03/18 19:48:05;;;;;;;;;;;;;;;6.52;100.00;99756.59;4992404;28;19917;-88
2024/03/18 19:50:31;;;;;;;;;;;;;;;6.58;100.00;99755.59;4976972;28;19948;-87
2024/03/18 19:52:56;;;;;;;;;;;;;;;6.58;100.00;99755.59;4977087;28;19925;-86
2024/03/18 19:55:21;;;;;;;;;;;;;;;6.79;100.00;99754.13;4995060;28;20389;-87
2024/03/18 19:57:59;;;;;;;;;;;;;;;;;;;;;
2024/03/18 20:00:25;;;;;;;;;;;;;;;6.67;100.00;99751.84;4993671;28;19920;-89
2024/03/18 20:02:50;;;;;;;;;;;;;;;6.61;100.00;99763.41;4993959;28;20020;-87
2024/03/18 20:05:15;;;;;;;;;;;;;;;6.62;100.00;99764.25;4976192;28;20384;-86
2024/03/18 20:07:41;;;;;;;;;;;;;;;6.59;100.00;99759.09;4994587;28;20288;-88
2024/03/18 20:10:07;;;;;;;;;;;;;;;6.61;100.00;99765.19;4993777;28;19972;-88
2024/03/18 20:12:32;;;;;;;;;;;;;;;6.64;100.00;99768.59;4994614;28;19921;-88
2024/03/18 20:14:59;;;;;;;;;;;;;;;6.65;100.00;99775.59;4994638;28;19937;-83
2024/03/18 20:17:25;;;;;;;;;;;;;;;6.68;100.00;99772.00;4993353;28;19960;-86
2024/03/18 20:19:50;;;;;;;;;;;;;;;6.69;100.00;99764.06;4994550;28;19965;-90
2024/03/18 20:22:15;;;;;;;;;;;;;;;6.71;100.00;99767.50;4994401;28;19929;-86
2024/03/18 20:24:40;;;;;;;;;;;;;;;6.71;100.00;99764.88;4994368;28;19918;-86
2024/03/18 20:27:06;;;;;;;;;;;;;;;6.73;100.00;99757.81;4994325;28;19918;-87
2024/03/18 20:29:31;;;;;;;;;;;;;;;6.72;100.00;99763.13;4994239;28;19918;-85
2024/03/18 20:31:56;;;;;;;;;;;;;;;6.71;100.00;99762.25;4992727;28;19929;-88
2024/03/18 20:34:21;;;;;;;;;;;;;;;6.72;100.00;99763.13;4976459;28;19948;-88
2024/03/18 20:36:47;;;;;;;;;;;;;;;6.70;100.00;99762.28;4993616;28;20009;-87
2024/03/18 20:39:12;;;;;;;;;;;;;;;6.76;100.00;99761.25;4993674;28;19924;-88
2024/03/18 20:41:41;;;;;;;;;;;;;;;6.76;100.00;99763.91;4994028;28;20365;-87
2024/03/18 20:44:07;;;;;;;;;;;;;;;6.71;100.00;99759.59;4993920;28;19950;-88
2024/03/18 20:46:33;;;;;;;;;;;;;;;6.68;100.00;99764.97;4992642;28;20015;-88
2024/03/18 20:48:59;;;;;;;;;;;;;;;6.71;100.00;99766.66;4994361;28;19918;-87
2024/03/18 20:51:24;;;;;;;;;;;;;;;6.68;100.00;99764.09;4993765;28;19922;-91
2024/03/18 20:53:49;;;;;;;;;;;;;;;6.68;100.00;99764.97;4975729;28;20013;-90
2024/03/18 20:56:15;;;;;;;;;;;;;;;6.59;100.00;99764.34;4975768;28;19965;-91
2024/03/18 20:58:40;;;;;;;;;;;;;;;6.59;100.00;99765.22;4993744;28;19925;-89
2024/03/18 21:01:05;;;;;;;;;;;;;;;6.60;100.00;99761.69;4992356;28;19957;-88
2024/03/18 21:03:31;;;;;;;;;;;;;;;6.63;100.00;99772.13;4993541;28;19929;-90
2024/03/18 21:05:57;;;;;;;;;;;;;;;6.58;100.00;99760.84;4975932;28;20381;-91
2024/03/18 21:08:22;;;;;;;;;;;;;;;6.63;100.00;99761.59;4976566;28;19992;-95
2024/03/18 21:10:47;;;;;;;;;;;;;;;6.57;100.00;99758.25;4976086;28;19921;-90
2024/03/18 21:13:12;;;;;;;;;;;;;;;6.60;100.00;99761.69;4993499;28;19961;-92
2024/03/18 21:15:38;;;;;;;;;;;;;;;6.60;100.00;99763.44;4991711;28;19922;-88
2024/03/18 21:18:07;;;;;;;;;;;;;;;6.58;100.00;99763.50;4975625;28;19940;-88
2024/03/18 21:20:33;;;;;;;;;;;;;;;6.61;100.00;99760.78;4992896;28;20000;-90
2024/03/18 21:22:58;;;;;;;;;;;;;;;6.60;100.00;99755.56;4975556;28;19925;-91
2024/03/18 21:25:24;;;;;;;;;;;;;;;6.62;100.00;99762.50;4993327;28;19926;-90
2024/03/18 21:27:50;;;;;;;;;;;;;;;6.61;100.00;99758.16;4993085;28;19918;-91
2024/03/18 21:30:19;;;;;;;;;;;;;;;6.60;100.00;99756.41;4993115;28;19928;-90
2024/03/18 21:32:44;;;;;;;;;;;;;;;6.67;100.00;99765.88;4991570;28;19961;-87
2024/03/18 21:35:10;;;;;;;;;;;;;;;6.57;100.00;99756.50;4993310;28;19957;-89
2024/03/18 21:37:39;;;;;;;;;;;;;;;6.59;100.00;99759.97;4975404;28;19925;-90
2024/03/18 21:40:05;;;;;;;;;;;;;;;6.61;100.00;99766.03;4993085;28;19921;-90
2024/03/18 21:42:31;;;;;;;;;;;;;;;6.58;100.00;99752.97;4990214;28;19945;-89
2024/03/18 21:44:56;;;;;;;;;;;;;;;6.63;100.00;99756.31;4992670;28;19987;-90
2024/03/18 21:47:22;;;;;;;;;;;;;;;6.70;100.00;99751.75;4991543;28;19918;-89
2024/03/18 21:49:47;;;;;;;;;;;;;;;6.68;100.00;99754.44;4992928;28;20400;-90
2024/03/18 21:52:13;;;;;;;;;;;;;;;6.66;100.00;99758.88;4992899;28;19918;-90